Wicky — XPE4448 — position and weather

sailwx.info

Track history (hours):
 
Tides and Currents Weather Stations Pressure Air Temp Water Temp Dewpoint Dewpoint Depression Visibility Wind Speed Wind Dir Waves Ship Positions

Wicky

Last reported at 2018-May-16 10:14 UTC. Time now 2018-Jun-18 21:07 UTC.
Position N 38°06' E 013°38'.
Warning: this ship's position is 33 days out of date.

Length 11 m.

Type: Sailing vessel. MMSI: 219017258.

Date/timePositionNaut miles runAvg speedWind from/ knotsBaromVisibWave heightAir tempDewpointWater temp
2018-May-16 10:14N 38°06' E 013°38'2 6.3
2018-May-16 09:56N 38°07' E 013°36'3 6.1
2018-May-16 09:28N 38°07' E 013°32'3 6.1
2018-May-16 09:00N 38°08' E 013°29'3 6.2
2018-May-16 08:30N 38°07' E 013°25'2 3.2
2018-May-16 07:54N 38°07' E 013°22'0 0.0
2018-May-15 08:54N 38°07' E 013°22'  
2018-May-12 14:00N 38°07' E 013°22'2 3.6
2018-May-12 13:30N 38°09' E 013°23'3 6.4
2018-May-12 12:59N 38°12' E 013°21'3 5.5
2018-May-12 12:29N 38°14' E 013°19'3 6.1
2018-May-12 12:00N 38°14' E 013°15'3 5.7
2018-May-12 11:30N 38°14' E 013°12'  
2018-May-08 08:37N 39°09' E 009°14'1 6.4
2018-May-08 08:29N 39°09' E 009°13'3 6.5
2018-May-08 08:00N 39°11' E 009°09'2 4.6
2018-May-08 07:29N 39°12' E 009°07'1 1.4
2018-May-08 06:58N 39°12' E 009°08'  
Track history (hours):
 
Tides and Currents Weather Stations Pressure Air Temp Water Temp Dewpoint Dewpoint Depression Visibility Wind Speed Wind Dir Waves Ship Positions

Wicky

Last reported at 2018-May-16 10:14 UTC. Time now 2018-Jun-18 21:07 UTC.
Position N 38°06' E 013°38'.
Warning: this ship's position is 33 days out of date.

Length 11 m.

Type: Sailing vessel. MMSI: 219017258.

Date/timePositionNaut miles runAvg speedWind from/ knotsBaromVisibWave heightAir tempDewpointWater temp
2018-May-16 10:14N 38°06' E 013°38'2 6.3
2018-May-16 09:56N 38°07' E 013°36'3 6.1
2018-May-16 09:28N 38°07' E 013°32'3 6.1
2018-May-16 09:00N 38°08' E 013°29'3 6.2
2018-May-16 08:30N 38°07' E 013°25'2 3.2
2018-May-16 07:54N 38°07' E 013°22'0 0.0
2018-May-15 08:54N 38°07' E 013°22'  
2018-May-12 14:00N 38°07' E 013°22'2 3.6
2018-May-12 13:30N 38°09' E 013°23'3 6.4
2018-May-12 12:59N 38°12' E 013°21'3 5.5
2018-May-12 12:29N 38°14' E 013°19'3 6.1
2018-May-12 12:00N 38°14' E 013°15'3 5.7
2018-May-12 11:30N 38°14' E 013°12'  
2018-May-08 08:37N 39°09' E 009°14'1 6.4
2018-May-08 08:29N 39°09' E 009°13'3 6.5
2018-May-08 08:00N 39°11' E 009°09'2 4.6
2018-May-08 07:29N 39°12' E 009°07'1 1.4
2018-May-08 06:58N 39°12' E 009°08'  

Dump ship's entire track history